sensor_id;sensor_type;location;lat;lon;timestamp;noise_LAeq;noise_LA_min;noise_LA_max;noise_LA01;noise_LA95
57092;Laerm;42968;52.094;4.328;2023-04-21T00:02:03;56.01;38.81;70.67;;
57092;Laerm;42968;52.094;4.328;2023-04-21T00:04:28;51.17;37.12;68.58;;
57092;Laerm;42968;52.094;4.328;2023-04-21T00:06:53;43.46;37.70;64.11;;
57092;Laerm;42968;52.094;4.328;2023-04-21T00:09:19;56.83;39.08;74.77;;
57092;Laerm;42968;52.094;4.328;2023-04-21T00:11:45;57.77;39.08;76.44;;
57092;Laerm;42968;52.094;4.328;2023-04-21T00:14:10;58.81;41.68;73.30;;
57092;Laerm;42968;52.094;4.328;2023-04-21T00:16:36;51.90;41.38;73.81;;
57092;Laerm;42968;52.094;4.328;2023-04-21T00:19:01;45.31;39.46;62.06;;
57092;Laerm;42968;52.094;4.328;2023-04-21T00:21:30;62.64;41.14;77.25;;
57092;Laerm;42968;52.094;4.328;2023-04-21T00:23:56;58.21;42.16;76.56;;
57092;Laerm;42968;52.094;4.328;2023-04-21T00:26:21;60.59;39.81;76.12;;
57092;Laerm;42968;52.094;4.328;2023-04-21T00:28:46;53.84;39.58;68.79;;
57092;Laerm;42968;52.094;4.328;2023-04-21T00:31:12;60.52;38.67;77.34;;
57092;Laerm;42968;52.094;4.328;2023-04-21T00:33:37;60.27;39.21;76.80;;
57092;Laerm;42968;52.094;4.328;2023-04-21T00:36:02;43.88;37.70;68.69;;
57092;Laerm;42968;52.094;4.328;2023-04-21T00:38:28;52.51;38.52;70.60;;
57092;Laerm;42968;52.094;4.328;2023-04-21T00:40:53;55.13;37.12;71.49;;
57092;Laerm;42968;52.094;4.328;2023-04-21T00:43:18;62.83;37.88;79.97;;
57092;Laerm;42968;52.094;4.328;2023-04-21T00:45:44;59.80;38.21;79.64;;
57092;Laerm;42968;52.094;4.328;2023-04-21T00:48:10;60.36;38.52;75.76;;
57092;Laerm;42968;52.094;4.328;2023-04-21T00:50:35;44.39;37.70;71.62;;
57092;Laerm;42968;52.094;4.328;2023-04-21T00:53:00;44.18;37.32;69.21;;
57092;Laerm;42968;52.094;4.328;2023-04-21T00:55:26;43.96;37.12;69.74;;
57092;Laerm;42968;52.094;4.328;2023-04-21T00:57:51;61.14;37.52;72.91;;
57092;Laerm;42968;52.094;4.328;2023-04-21T01:00:17;45.37;37.32;78.25;;
57092;Laerm;42968;52.094;4.328;2023-04-21T01:02:43;58.81;36.45;77.60;;
57092;Laerm;42968;52.094;4.328;2023-04-21T01:05:09;52.96;36.91;74.40;;
57092;Laerm;42968;52.094;4.328;2023-04-21T01:07:35;60.78;37.52;75.40;;
57092;Laerm;42968;52.094;4.328;2023-04-21T01:10:01;42.96;38.05;61.28;;
57092;Laerm;42968;52.094;4.328;2023-04-21T01:12:26;56.33;37.17;72.42;;
57092;Laerm;42968;52.094;4.328;2023-04-21T01:14:52;60.37;36.91;79.14;;
57092;Laerm;42968;52.094;4.328;2023-04-21T01:17:17;55.01;37.52;69.69;;
57092;Laerm;42968;52.094;4.328;2023-04-21T01:19:43;58.76;37.88;78.50;;
57092;Laerm;42968;52.094;4.328;2023-04-21T01:22:09;61.19;43.19;79.60;;
57092;Laerm;42968;52.094;4.328;2023-04-21T01:24:39;56.94;42.22;73.32;;
57092;Laerm;42968;52.094;4.328;2023-04-21T01:27:15;62.10;41.06;79.46;;
57092;Laerm;42968;52.094;4.328;2023-04-21T01:29:42;60.94;41.75;78.23;;
57092;Laerm;42968;52.094;4.328;2023-04-21T01:32:11;63.03;41.53;80.00;;
57092;Laerm;42968;52.094;4.328;2023-04-21T01:34:37;48.81;41.06;63.54;;
57092;Laerm;42968;52.094;4.328;2023-04-21T01:37:05;69.40;41.96;86.56;;
57092;Laerm;42968;52.094;4.328;2023-04-21T01:39:31;61.99;41.46;76.79;;
57092;Laerm;42968;52.094;4.328;2023-04-21T01:41:56;59.88;42.22;73.80;;
57092;Laerm;42968;52.094;4.328;2023-04-21T01:44:22;43.45;40.53;63.36;;
57092;Laerm;42968;52.094;4.328;2023-04-21T01:46:48;57.72;40.71;72.91;;
57092;Laerm;42968;52.094;4.328;2023-04-21T01:49:13;43.85;39.81;65.79;;
57092;Laerm;42968;52.094;4.328;2023-04-21T01:51:39;56.50;38.37;73.09;;
57092;Laerm;42968;52.094;4.328;2023-04-21T01:54:05;45.35;39.81;61.58;;
57092;Laerm;42968;52.094;4.328;2023-04-21T01:56:30;71.67;38.81;89.55;;
57092;Laerm;42968;52.094;4.328;2023-04-21T01:58:55;58.68;38.05;74.86;;
57092;Laerm;42968;52.094;4.328;2023-04-21T02:01:20;54.99;38.37;70.62;;
57092;Laerm;42968;52.094;4.328;2023-04-21T02:03:46;59.39;37.52;75.95;;
57092;Laerm;42968;52.094;4.328;2023-04-21T02:06:11;58.94;38.37;77.20;;
57092;Laerm;42968;52.094;4.328;2023-04-21T02:08:38;59.54;37.32;73.75;;
57092;Laerm;42968;52.094;4.328;2023-04-21T02:11:03;55.76;39.08;74.55;;
57092;Laerm;42968;52.094;4.328;2023-04-21T02:13:28;58.05;38.21;75.34;;
57092;Laerm;42968;52.094;4.328;2023-04-21T02:15:53;54.54;39.08;69.07;;
57092;Laerm;42968;52.094;4.328;2023-04-21T02:18:19;54.25;39.21;73.37;;
57092;Laerm;42968;52.094;4.328;2023-04-21T02:20:45;56.71;40.13;73.37;;
57092;Laerm;42968;52.094;4.328;2023-04-21T02:23:11;66.50;41.38;84.40;;
57092;Laerm;42968;52.094;4.328;2023-04-21T02:25:36;62.25;41.75;75.27;;
57092;Laerm;42968;52.094;4.328;2023-04-21T02:28:01;58.08;40.62;74.78;;
57092;Laerm;42968;52.094;4.328;2023-04-21T02:30:26;58.53;40.03;73.38;;
57092;Laerm;42968;52.094;4.328;2023-04-21T02:32:52;58.59;40.62;76.23;;
57092;Laerm;42968;52.094;4.328;2023-04-21T02:35:17;58.40;41.46;74.11;;
57092;Laerm;42968;52.094;4.328;2023-04-21T02:37:42;60.97;41.53;76.03;;
57092;Laerm;42968;52.094;4.328;2023-04-21T02:40:08;65.17;43.58;80.86;;
57092;Laerm;42968;52.094;4.328;2023-04-21T02:42:33;61.67;43.94;80.07;;
57092;Laerm;42968;52.094;4.328;2023-04-21T02:44:58;65.46;46.48;78.61;;
57092;Laerm;42968;52.094;4.328;2023-04-21T02:47:24;63.30;45.86;77.09;;
57092;Laerm;42968;52.094;4.328;2023-04-21T02:49:50;69.09;44.94;87.45;;
57092;Laerm;42968;52.094;4.328;2023-04-21T02:52:15;61.05;45.51;81.79;;
57092;Laerm;42968;52.094;4.328;2023-04-21T02:54:41;66.81;46.82;82.01;;
57092;Laerm;42968;52.094;4.328;2023-04-21T02:57:06;64.56;45.33;78.65;;
57092;Laerm;42968;52.094;4.328;2023-04-21T02:59:31;63.93;46.43;77.18;;
57092;Laerm;42968;52.094;4.328;2023-04-21T03:01:56;62.05;45.94;81.53;;
57092;Laerm;42968;52.094;4.328;2023-04-21T03:04:22;54.47;43.14;76.46;;
57092;Laerm;42968;52.094;4.328;2023-04-21T03:06:49;59.94;41.61;81.03;;
57092;Laerm;42968;52.094;4.328;2023-04-21T03:09:14;64.78;41.38;82.43;;
57092;Laerm;42968;52.094;4.328;2023-04-21T03:11:40;67.41;43.86;82.92;;
57092;Laerm;42968;52.094;4.328;2023-04-21T03:14:05;66.29;42.95;82.52;;
57092;Laerm;42968;52.094;4.328;2023-04-21T03:16:30;60.18;41.30;75.66;;
57092;Laerm;42968;52.094;4.328;2023-04-21T03:18:56;64.02;40.33;82.08;;
57092;Laerm;42968;52.094;4.328;2023-04-21T03:21:21;67.08;45.97;80.45;;
57092;Laerm;42968;52.094;4.328;2023-04-21T03:23:46;70.26;44.35;83.25;;
57092;Laerm;42968;52.094;4.328;2023-04-21T03:26:11;67.57;43.54;81.81;;
57092;Laerm;42968;52.094;4.328;2023-04-21T03:28:37;66.65;44.07;82.09;;
57092;Laerm;42968;52.094;4.328;2023-04-21T03:31:02;69.35;44.54;83.46;;
57092;Laerm;42968;52.094;4.328;2023-04-21T03:33:27;71.09;52.28;85.13;;
57092;Laerm;42968;52.094;4.328;2023-04-21T03:35:52;69.55;46.84;83.73;;
57092;Laerm;42968;52.094;4.328;2023-04-21T03:38:18;68.84;45.25;82.76;;
57092;Laerm;42968;52.094;4.328;2023-04-21T03:40:43;72.00;45.42;85.80;;
57092;Laerm;42968;52.094;4.328;2023-04-21T03:43:08;70.54;48.88;85.05;;
57092;Laerm;42968;52.094;4.328;2023-04-21T03:45:34;68.71;48.31;80.03;;
57092;Laerm;42968;52.094;4.328;2023-04-21T03:47:59;66.82;44.31;83.07;;
57092;Laerm;42968;52.094;4.328;2023-04-21T03:50:24;68.47;51.40;82.66;;
57092;Laerm;42968;52.094;4.328;2023-04-21T03:52:50;68.26;48.02;81.85;;
57092;Laerm;42968;52.094;4.328;2023-04-21T03:55:15;68.13;48.40;82.12;;
57092;Laerm;42968;52.094;4.328;2023-04-21T03:57:41;70.31;48.07;84.99;;
57092;Laerm;42968;52.094;4.328;2023-04-21T04:00:07;71.25;50.69;86.70;;
57092;Laerm;42968;52.094;4.328;2023-04-21T04:02:33;67.85;41.14;83.33;;
57092;Laerm;42968;52.094;4.328;2023-04-21T04:04:59;71.45;48.13;86.32;;
57092;Laerm;42968;52.094;4.328;2023-04-21T04:07:24;66.42;46.07;77.21;;
57092;Laerm;42968;52.094;4.328;2023-04-21T04:09:50;67.90;43.72;80.43;;
57092;Laerm;42968;52.094;4.328;2023-04-21T04:12:15;65.40;47.38;78.69;;
57092;Laerm;42968;52.094;4.328;2023-04-21T04:14:41;69.96;44.87;81.35;;
57092;Laerm;42968;52.094;4.328;2023-04-21T04:17:06;69.33;54.24;79.53;;
57092;Laerm;42968;52.094;4.328;2023-04-21T04:19:31;71.37;54.39;82.23;;
57092;Laerm;42968;52.094;4.328;2023-04-21T04:21:57;67.36;45.23;79.71;;
57092;Laerm;42968;52.094;4.328;2023-04-21T04:24:23;68.84;45.75;79.96;;
57092;Laerm;42968;52.094;4.328;2023-04-21T04:26:48;67.85;45.63;79.25;;
57092;Laerm;42968;52.094;4.328;2023-04-21T04:29:13;68.84;46.80;78.65;;
57092;Laerm;42968;52.094;4.328;2023-04-21T04:31:40;70.30;50.98;83.05;;
57092;Laerm;42968;52.094;4.328;2023-04-21T04:34:05;68.95;50.12;80.05;;
57092;Laerm;42968;52.094;4.328;2023-04-21T04:36:31;70.72;46.71;81.15;;
57092;Laerm;42968;52.094;4.328;2023-04-21T04:38:57;71.17;50.42;86.81;;
57092;Laerm;42968;52.094;4.328;2023-04-21T04:41:23;70.94;54.94;80.29;;
57092;Laerm;42968;52.094;4.328;2023-04-21T04:43:48;72.50;52.45;84.50;;
57092;Laerm;42968;52.094;4.328;2023-04-21T04:46:14;72.87;55.65;83.43;;
57092;Laerm;42968;52.094;4.328;2023-04-21T04:48:39;73.33;45.69;89.65;;
57092;Laerm;42968;52.094;4.328;2023-04-21T04:51:04;71.74;48.88;81.60;;
57092;Laerm;42968;52.094;4.328;2023-04-21T04:53:30;71.73;52.47;81.03;;
57092;Laerm;42968;52.094;4.328;2023-04-21T04:55:56;72.55;52.34;85.71;;
57092;Laerm;42968;52.094;4.328;2023-04-21T04:58:22;72.81;53.77;84.99;;
57092;Laerm;42968;52.094;4.328;2023-04-21T05:00:48;72.37;51.67;81.86;;
57092;Laerm;42968;52.094;4.328;2023-04-21T05:03:13;72.19;51.23;86.06;;
57092;Laerm;42968;52.094;4.328;2023-04-21T05:05:38;69.52;50.21;81.68;;
57092;Laerm;42968;52.094;4.328;2023-04-21T05:08:03;71.65;56.37;83.96;;
57092;Laerm;42968;52.094;4.328;2023-04-21T05:10:29;70.34;49.62;82.81;;
57092;Laerm;42968;52.094;4.328;2023-04-21T05:12:54;73.22;55.53;85.02;;
57092;Laerm;42968;52.094;4.328;2023-04-21T05:15:19;71.16;47.70;83.19;;
57092;Laerm;42968;52.094;4.328;2023-04-21T05:17:46;71.06;50.28;81.93;;
57092;Laerm;42968;52.094;4.328;2023-04-21T05:20:11;70.39;46.95;79.43;;
57092;Laerm;42968;52.094;4.328;2023-04-21T05:22:37;72.12;56.22;84.79;;
57092;Laerm;42968;52.094;4.328;2023-04-21T05:25:03;70.65;51.50;82.22;;
57092;Laerm;42968;52.094;4.328;2023-04-21T05:27:28;70.44;50.60;79.69;;
57092;Laerm;42968;52.094;4.328;2023-04-21T05:29:54;69.97;48.57;77.89;;
57092;Laerm;42968;52.094;4.328;2023-04-21T05:32:19;70.98;55.41;77.87;;
57092;Laerm;42968;52.094;4.328;2023-04-21T05:34:44;71.50;54.23;82.86;;
57092;Laerm;42968;52.094;4.328;2023-04-21T05:37:10;72.02;57.85;87.38;;
57092;Laerm;42968;52.094;4.328;2023-04-21T05:39:36;71.68;48.81;79.46;;
57092;Laerm;42968;52.094;4.328;2023-04-21T05:42:01;70.57;48.13;78.75;;
57092;Laerm;42968;52.094;4.328;2023-04-21T05:44:27;72.45;52.48;85.57;;
57092;Laerm;42968;52.094;4.328;2023-04-21T05:46:52;69.06;46.45;78.58;;
57092;Laerm;42968;52.094;4.328;2023-04-21T05:49:17;70.46;49.36;80.11;;
57092;Laerm;42968;52.094;4.328;2023-04-21T05:51:43;70.47;55.61;76.91;;
57092;Laerm;42968;52.094;4.328;2023-04-21T05:54:08;71.83;54.63;82.85;;
57092;Laerm;42968;52.094;4.328;2023-04-21T05:56:33;71.57;56.00;81.44;;
57092;Laerm;42968;52.094;4.328;2023-04-21T05:58:59;72.07;51.31;82.16;;
57092;Laerm;42968;52.094;4.328;2023-04-21T06:01:24;71.96;58.62;86.14;;
57092;Laerm;42968;52.094;4.328;2023-04-21T06:03:49;73.38;57.44;82.90;;
57092;Laerm;42968;52.094;4.328;2023-04-21T06:06:14;73.13;53.90;85.88;;
57092;Laerm;42968;52.094;4.328;2023-04-21T06:08:40;71.85;52.09;80.28;;
57092;Laerm;42968;52.094;4.328;2023-04-21T06:11:05;71.03;56.38;81.43;;
57092;Laerm;42968;52.094;4.328;2023-04-21T06:13:31;72.90;52.50;80.25;;
57092;Laerm;42968;52.094;4.328;2023-04-21T06:15:56;71.54;52.33;79.09;;
57092;Laerm;42968;52.094;4.328;2023-04-21T06:18:21;73.67;54.39;80.61;;
57092;Laerm;42968;52.094;4.328;2023-04-21T06:20:54;72.70;54.75;80.17;;
57092;Laerm;42968;52.094;4.328;2023-04-21T06:23:19;72.51;59.57;80.50;;
57092;Laerm;42968;52.094;4.328;2023-04-21T06:25:45;71.80;49.44;81.97;;
57092;Laerm;42968;52.094;4.328;2023-04-21T06:28:11;72.56;53.63;81.79;;
57092;Laerm;42968;52.094;4.328;2023-04-21T06:30:36;71.25;59.12;79.17;;
57092;Laerm;42968;52.094;4.328;2023-04-21T06:33:01;73.40;53.66;81.31;;
57092;Laerm;42968;52.094;4.328;2023-04-21T06:35:28;72.25;61.01;80.94;;
57092;Laerm;42968;52.094;4.328;2023-04-21T06:37:53;71.24;57.84;78.39;;
57092;Laerm;42968;52.094;4.328;2023-04-21T06:40:18;71.78;52.17;81.98;;
57092;Laerm;42968;52.094;4.328;2023-04-21T06:42:44;71.31;57.55;79.49;;
57092;Laerm;42968;52.094;4.328;2023-04-21T06:45:09;71.66;58.16;78.29;;
57092;Laerm;42968;52.094;4.328;2023-04-21T06:47:35;72.38;59.28;82.89;;
57092;Laerm;42968;52.094;4.328;2023-04-21T06:50:00;73.05;56.37;86.27;;
57092;Laerm;42968;52.094;4.328;2023-04-21T06:52:25;73.72;57.31;85.75;;
57092;Laerm;42968;52.094;4.328;2023-04-21T06:54:50;73.09;53.59;82.35;;
57092;Laerm;42968;52.094;4.328;2023-04-21T06:57:16;71.75;57.73;80.39;;
57092;Laerm;42968;52.094;4.328;2023-04-21T06:59:41;71.88;53.78;82.25;;
57092;Laerm;42968;52.094;4.328;2023-04-21T07:02:07;72.42;53.89;81.11;;
57092;Laerm;42968;52.094;4.328;2023-04-21T07:04:32;70.51;56.16;79.85;;
57092;Laerm;42968;52.094;4.328;2023-04-21T07:06:57;70.74;50.49;80.24;;
57092;Laerm;42968;52.094;4.328;2023-04-21T07:09:22;70.79;55.99;78.20;;
57092;Laerm;42968;52.094;4.328;2023-04-21T07:11:48;71.19;55.43;83.07;;
57092;Laerm;42968;52.094;4.328;2023-04-21T07:14:13;69.43;48.31;77.58;;
57092;Laerm;42968;52.094;4.328;2023-04-21T07:16:38;71.52;51.28;79.25;;
57092;Laerm;42968;52.094;4.328;2023-04-21T07:19:03;71.14;54.68;84.00;;
57092;Laerm;42968;52.094;4.328;2023-04-21T07:21:29;72.65;57.76;82.59;;
57092;Laerm;42968;52.094;4.328;2023-04-21T07:23:56;71.81;48.13;80.99;;
57092;Laerm;42968;52.094;4.328;2023-04-21T07:26:21;70.26;53.75;79.09;;
57092;Laerm;42968;52.094;4.328;2023-04-21T07:28:46;73.50;59.16;90.55;;
57092;Laerm;42968;52.094;4.328;2023-04-21T07:31:13;71.32;55.31;84.10;;
57092;Laerm;42968;52.094;4.328;2023-04-21T07:33:38;70.61;51.45;81.07;;
57092;Laerm;42968;52.094;4.328;2023-04-21T07:36:04;71.15;50.06;80.98;;
57092;Laerm;42968;52.094;4.328;2023-04-21T07:38:29;71.12;52.51;79.64;;
57092;Laerm;42968;52.094;4.328;2023-04-21T07:40:55;69.45;47.34;80.36;;
57092;Laerm;42968;52.094;4.328;2023-04-21T07:43:20;71.75;55.38;81.69;;
57092;Laerm;42968;52.094;4.328;2023-04-21T07:45:45;80.91;59.14;98.76;;
57092;Laerm;42968;52.094;4.328;2023-04-21T07:48:10;71.10;58.87;78.24;;
57092;Laerm;42968;52.094;4.328;2023-04-21T07:50:36;70.19;51.30;78.68;;
57092;Laerm;42968;52.094;4.328;2023-04-21T07:53:01;70.54;56.92;83.69;;
57092;Laerm;42968;52.094;4.328;2023-04-21T07:55:27;72.21;49.97;81.49;;
57092;Laerm;42968;52.094;4.328;2023-04-21T07:57:52;68.58;50.15;77.29;;
57092;Laerm;42968;52.094;4.328;2023-04-21T08:00:17;71.58;53.02;80.45;;
57092;Laerm;42968;52.094;4.328;2023-04-21T08:02:43;71.29;55.56;82.80;;
57092;Laerm;42968;52.094;4.328;2023-04-21T08:05:08;71.57;52.22;79.30;;
57092;Laerm;42968;52.094;4.328;2023-04-21T08:07:33;70.21;53.19;79.37;;
57092;Laerm;42968;52.094;4.328;2023-04-21T08:09:59;70.87;55.68;87.31;;
57092;Laerm;42968;52.094;4.328;2023-04-21T08:12:24;70.30;50.38;78.00;;
57092;Laerm;42968;52.094;4.328;2023-04-21T08:14:50;70.24;54.78;78.55;;
57092;Laerm;42968;52.094;4.328;2023-04-21T08:17:16;70.75;53.32;81.01;;
57092;Laerm;42968;52.094;4.328;2023-04-21T08:19:41;70.34;60.28;80.03;;
57092;Laerm;42968;52.094;4.328;2023-04-21T08:22:06;69.12;52.38;77.52;;
57092;Laerm;42968;52.094;4.328;2023-04-21T08:24:31;71.10;49.79;80.02;;
57092;Laerm;42968;52.094;4.328;2023-04-21T08:26:57;71.45;54.17;77.86;;
57092;Laerm;42968;52.094;4.328;2023-04-21T08:29:22;70.32;52.30;81.76;;
57092;Laerm;42968;52.094;4.328;2023-04-21T08:31:47;70.01;49.20;81.89;;
57092;Laerm;42968;52.094;4.328;2023-04-21T08:34:13;69.33;56.25;77.89;;
57092;Laerm;42968;52.094;4.328;2023-04-21T08:36:38;71.31;56.46;85.15;;
57092;Laerm;42968;52.094;4.328;2023-04-21T08:39:05;69.65;53.35;78.89;;
57092;Laerm;42968;52.094;4.328;2023-04-21T08:41:31;69.91;49.55;78.94;;
57092;Laerm;42968;52.094;4.328;2023-04-21T08:43:56;70.72;49.96;79.62;;
57092;Laerm;42968;52.094;4.328;2023-04-21T08:46:21;70.76;49.52;79.32;;
57092;Laerm;42968;52.094;4.328;2023-04-21T08:48:47;70.32;50.02;78.88;;
57092;Laerm;42968;52.094;4.328;2023-04-21T08:51:13;69.57;50.25;79.66;;
57092;Laerm;42968;52.094;4.328;2023-04-21T08:53:41;70.49;55.60;82.25;;
57092;Laerm;42968;52.094;4.328;2023-04-21T08:56:07;68.73;50.45;76.59;;
57092;Laerm;42968;52.094;4.328;2023-04-21T08:58:32;71.28;50.27;81.51;;
57092;Laerm;42968;52.094;4.328;2023-04-21T09:00:58;69.70;45.86;81.13;;
57092;Laerm;42968;52.094;4.328;2023-04-21T09:03:24;70.96;51.72;78.40;;
57092;Laerm;42968;52.094;4.328;2023-04-21T09:05:59;72.96;53.52;83.17;;
57092;Laerm;42968;52.094;4.328;2023-04-21T09:08:24;70.71;50.29;78.19;;
57092;Laerm;42968;52.094;4.328;2023-04-21T09:10:52;70.14;52.55;79.86;;
57092;Laerm;42968;52.094;4.328;2023-04-21T09:13:17;70.78;52.15;79.98;;
57092;Laerm;42968;52.094;4.328;2023-04-21T09:15:47;70.70;51.93;81.33;;
57092;Laerm;42968;52.094;4.328;2023-04-21T09:20:42;70.27;58.32;82.02;;
57092;Laerm;42968;52.094;4.328;2023-04-21T09:23:08;70.94;56.96;81.70;;
57092;Laerm;42968;52.094;4.328;2023-04-21T09:25:33;70.03;55.26;80.88;;
57092;Laerm;42968;52.094;4.328;2023-04-21T09:27:59;68.34;49.42;77.54;;
57092;Laerm;42968;52.094;4.328;2023-04-21T09:30:24;69.16;49.46;77.55;;
57092;Laerm;42968;52.094;4.328;2023-04-21T09:32:50;69.03;48.84;77.72;;
57092;Laerm;42968;52.094;4.328;2023-04-21T09:35:20;68.82;51.03;77.20;;
57092;Laerm;42968;52.094;4.328;2023-04-21T09:37:45;68.79;49.25;78.18;;
57092;Laerm;42968;52.094;4.328;2023-04-21T09:40:14;71.18;51.56;79.59;;
57092;Laerm;42968;52.094;4.328;2023-04-21T09:42:41;70.59;54.29;78.89;;
57092;Laerm;42968;52.094;4.328;2023-04-21T09:45:07;69.39;51.71;76.78;;
57092;Laerm;42968;52.094;4.328;2023-04-21T09:47:34;69.69;48.25;78.25;;
57092;Laerm;42968;52.094;4.328;2023-04-21T09:50:03;70.67;50.56;79.92;;
57092;Laerm;42968;52.094;4.328;2023-04-21T09:52:30;70.78;50.16;78.01;;
57092;Laerm;42968;52.094;4.328;2023-04-21T09:54:59;70.62;47.77;81.36;;
57092;Laerm;42968;52.094;4.328;2023-04-21T09:57:28;69.51;56.25;81.98;;
57092;Laerm;42968;52.094;4.328;2023-04-21T09:59:57;69.66;52.64;77.52;;
57092;Laerm;42968;52.094;4.328;2023-04-21T10:02:24;70.81;54.85;82.01;;
57092;Laerm;42968;52.094;4.328;2023-04-21T10:04:53;71.87;55.30;79.55;;
57092;Laerm;42968;52.094;4.328;2023-04-21T10:07:18;70.01;53.15;80.56;;
57092;Laerm;42968;52.094;4.328;2023-04-21T10:09:50;70.16;55.23;77.96;;
57092;Laerm;42968;52.094;4.328;2023-04-21T10:12:18;70.39;54.88;87.32;;
57092;Laerm;42968;52.094;4.328;2023-04-21T10:14:44;70.56;53.35;81.16;;
57092;Laerm;42968;52.094;4.328;2023-04-21T10:17:09;70.60;52.17;78.35;;
57092;Laerm;42968;52.094;4.328;2023-04-21T10:19:35;71.10;50.14;79.04;;
57092;Laerm;42968;52.094;4.328;2023-04-21T10:22:06;70.16;56.02;77.37;;
57092;Laerm;42968;52.094;4.328;2023-04-21T10:24:38;70.00;53.66;76.99;;
57092;Laerm;42968;52.094;4.328;2023-04-21T10:27:03;70.17;51.74;78.58;;
57092;Laerm;42968;52.094;4.328;2023-04-21T10:29:29;68.91;51.79;78.66;;
57092;Laerm;42968;52.094;4.328;2023-04-21T10:31:55;71.96;62.85;79.06;;
57092;Laerm;42968;52.094;4.328;2023-04-21T10:36:50;70.19;46.55;79.92;;
57092;Laerm;42968;52.094;4.328;2023-04-21T10:39:35;69.66;52.62;79.57;;
57092;Laerm;42968;52.094;4.328;2023-04-21T10:44:32;71.01;52.60;80.73;;
57092;Laerm;42968;52.094;4.328;2023-04-21T10:46:57;69.73;50.55;81.64;;
57092;Laerm;42968;52.094;4.328;2023-04-21T10:49:26;71.05;56.44;83.76;;
57092;Laerm;42968;52.094;4.328;2023-04-21T10:54:26;68.49;47.32;76.89;;
57092;Laerm;42968;52.094;4.328;2023-04-21T10:56:52;70.57;49.92;80.33;;
57092;Laerm;42968;52.094;4.328;2023-04-21T10:59:18;69.21;54.67;78.97;;
57092;Laerm;42968;52.094;4.328;2023-04-21T11:01:44;69.76;52.66;84.20;;
57092;Laerm;42968;52.094;4.328;2023-04-21T11:04:13;70.58;50.20;78.91;;
57092;Laerm;42968;52.094;4.328;2023-04-21T11:06:38;69.37;52.15;80.98;;
57092;Laerm;42968;52.094;4.328;2023-04-21T11:09:04;71.09;59.04;87.28;;
57092;Laerm;42968;52.094;4.328;2023-04-21T11:11:29;69.28;52.48;77.04;;
57092;Laerm;42968;52.094;4.328;2023-04-21T11:13:54;70.06;51.40;79.17;;
57092;Laerm;42968;52.094;4.328;2023-04-21T11:16:23;69.62;46.80;78.14;;
57092;Laerm;42968;52.094;4.328;2023-04-21T11:18:49;71.09;50.47;81.45;;
57092;Laerm;42968;52.094;4.328;2023-04-21T11:21:16;71.15;53.22;79.29;;
57092;Laerm;42968;52.094;4.328;2023-04-21T11:24:15;68.62;49.97;77.36;;
57092;Laerm;42968;52.094;4.328;2023-04-21T11:26:34;72.67;51.38;82.63;;
57092;Laerm;42968;52.094;4.328;2023-04-21T11:29:05;69.30;54.26;78.26;;
57092;Laerm;42968;52.094;4.328;2023-04-21T11:31:31;71.32;51.24;78.84;;
57092;Laerm;42968;52.094;4.328;2023-04-21T11:33:59;69.27;54.38;77.59;;
57092;Laerm;42968;52.094;4.328;2023-04-21T11:36:25;68.88;50.95;88.08;;
57092;Laerm;42968;52.094;4.328;2023-04-21T11:38:51;69.53;57.09;79.59;;
57092;Laerm;42968;52.094;4.328;2023-04-21T11:41:20;70.53;58.26;78.78;;
57092;Laerm;42968;52.094;4.328;2023-04-21T11:43:46;69.56;60.16;77.63;;
57092;Laerm;42968;52.094;4.328;2023-04-21T11:46:12;70.10;55.94;78.05;;
57092;Laerm;42968;52.094;4.328;2023-04-21T11:48:41;69.33;56.06;81.92;;
57092;Laerm;42968;52.094;4.328;2023-04-21T11:51:12;69.44;56.63;81.83;;
57092;Laerm;42968;52.094;4.328;2023-04-21T11:53:38;68.06;56.18;77.65;;
57092;Laerm;42968;52.094;4.328;2023-04-21T11:56:03;70.84;56.53;82.26;;
57092;Laerm;42968;52.094;4.328;2023-04-21T11:58:30;69.72;50.13;79.89;;
57092;Laerm;42968;52.094;4.328;2023-04-21T12:00:55;70.43;47.91;80.69;;
57092;Laerm;42968;52.094;4.328;2023-04-21T12:03:20;69.32;57.77;82.33;;
57092;Laerm;42968;52.094;4.328;2023-04-21T12:05:46;70.58;56.64;82.20;;
57092;Laerm;42968;52.094;4.328;2023-04-21T12:08:12;70.88;51.81;80.79;;
57092;Laerm;42968;52.094;4.328;2023-04-21T12:10:42;71.95;56.68;85.25;;
57092;Laerm;42968;52.094;4.328;2023-04-21T12:13:08;69.92;48.45;78.53;;
57092;Laerm;42968;52.094;4.328;2023-04-21T12:15:33;69.31;50.51;79.52;;
57092;Laerm;42968;52.094;4.328;2023-04-21T12:17:58;68.93;53.33;76.44;;
57092;Laerm;42968;52.094;4.328;2023-04-21T12:20:24;69.04;56.77;76.68;;
57092;Laerm;42968;52.094;4.328;2023-04-21T12:22:50;68.74;56.03;78.39;;
57092;Laerm;42968;52.094;4.328;2023-04-21T12:25:16;70.03;50.45;77.93;;
57092;Laerm;42968;52.094;4.328;2023-04-21T12:27:48;70.75;48.13;81.95;;
57092;Laerm;42968;52.094;4.328;2023-04-21T12:30:14;71.07;49.96;83.35;;
57092;Laerm;42968;52.094;4.328;2023-04-21T12:32:39;69.68;47.26;79.45;;
57092;Laerm;42968;52.094;4.328;2023-04-21T12:35:05;71.50;52.33;85.44;;
57092;Laerm;42968;52.094;4.328;2023-04-21T12:37:30;69.50;53.97;79.47;;
57092;Laerm;42968;52.094;4.328;2023-04-21T12:39:56;69.84;50.27;77.19;;
57092;Laerm;42968;52.094;4.328;2023-04-21T12:42:21;70.61;57.68;81.15;;
57092;Laerm;42968;52.094;4.328;2023-04-21T12:44:47;69.71;51.93;77.54;;
57092;Laerm;42968;52.094;4.328;2023-04-21T12:47:12;84.05;59.14;106.62;;
57092;Laerm;42968;52.094;4.328;2023-04-21T12:49:37;72.15;52.48;80.28;;
57092;Laerm;42968;52.094;4.328;2023-04-21T12:52:02;70.74;60.89;82.63;;
57092;Laerm;42968;52.094;4.328;2023-04-21T12:54:30;70.64;56.83;81.36;;
57092;Laerm;42968;52.094;4.328;2023-04-21T12:56:55;70.57;49.47;81.61;;
57092;Laerm;42968;52.094;4.328;2023-04-21T12:59:22;70.58;56.85;78.19;;
57092;Laerm;42968;52.094;4.328;2023-04-21T13:01:47;69.33;55.11;77.41;;
57092;Laerm;42968;52.094;4.328;2023-04-21T13:04:12;70.18;50.55;78.52;;
57092;Laerm;42968;52.094;4.328;2023-04-21T13:06:38;68.35;52.78;80.15;;
57092;Laerm;42968;52.094;4.328;2023-04-21T13:09:04;68.36;49.95;76.35;;
57092;Laerm;42968;52.094;4.328;2023-04-21T13:11:29;70.91;52.42;77.93;;
57092;Laerm;42968;52.094;4.328;2023-04-21T13:13:55;69.86;54.90;78.44;;
57092;Laerm;42968;52.094;4.328;2023-04-21T13:16:20;70.04;50.01;77.77;;
57092;Laerm;42968;52.094;4.328;2023-04-21T13:18:45;70.05;50.53;78.42;;
57092;Laerm;42968;52.094;4.328;2023-04-21T13:21:11;71.86;58.01;80.56;;
57092;Laerm;42968;52.094;4.328;2023-04-21T13:23:36;69.11;51.18;81.75;;
57092;Laerm;42968;52.094;4.328;2023-04-21T13:26:02;70.36;48.13;80.68;;
57092;Laerm;42968;52.094;4.328;2023-04-21T13:28:27;70.38;48.05;79.77;;
57092;Laerm;42968;52.094;4.328;2023-04-21T13:30:54;70.72;53.73;81.15;;
57092;Laerm;42968;52.094;4.328;2023-04-21T13:33:19;70.74;53.85;82.03;;
57092;Laerm;42968;52.094;4.328;2023-04-21T13:35:45;70.75;57.08;79.87;;
57092;Laerm;42968;52.094;4.328;2023-04-21T13:38:10;70.52;59.53;78.40;;
57092;Laerm;42968;52.094;4.328;2023-04-21T13:40:36;70.51;56.18;82.17;;
57092;Laerm;42968;52.094;4.328;2023-04-21T13:43:01;67.59;54.07;84.14;;
57092;Laerm;42968;52.094;4.328;2023-04-21T13:45:26;69.42;59.37;76.88;;
57092;Laerm;42968;52.094;4.328;2023-04-21T13:47:52;70.83;58.71;81.61;;